createdAt,value
2019-03-26T00:01:09.272Z,5.33
2019-03-26T00:03:42.985Z,5.38
2019-03-26T00:06:16.947Z,5.48
2019-03-26T00:08:50.865Z,5.41
2019-03-26T00:11:24.658Z,5.43
2019-03-26T00:13:57.948Z,5.43
2019-03-26T00:16:31.888Z,5.37
2019-03-26T00:19:03.827Z,5.41
2019-03-26T00:21:35.917Z,5.36
2019-03-26T00:24:07.773Z,5.28
2019-03-26T00:26:39.660Z,5.31
2019-03-26T00:29:13.648Z,5.32
2019-03-26T00:31:46.666Z,5.12
2019-03-26T00:34:19.782Z,5.26
2019-03-26T00:36:54.789Z,5.22
2019-03-26T00:39:27.903Z,5.16
2019-03-26T00:42:00.862Z,5.17
2019-03-26T00:44:33.976Z,5.08
2019-03-26T00:47:06.897Z,5.18
2019-03-26T00:49:39.838Z,5.05
2019-03-26T00:52:13.014Z,4.98
2019-03-26T00:54:46.915Z,4.91
2019-03-26T00:57:18.841Z,4.76
2019-03-26T00:59:53.384Z,4.57
2019-03-26T01:02:26.831Z,4.48
2019-03-26T01:05:00.036Z,4.40
2019-03-26T01:07:34.013Z,4.33
2019-03-26T01:10:06.827Z,4.33
2019-03-26T01:12:41.112Z,4.31
2019-03-26T01:15:14.281Z,4.30
2019-03-26T01:17:46.515Z,4.34
2019-03-26T01:20:18.469Z,4.35
2019-03-26T01:22:51.105Z,4.42
2019-03-26T01:25:22.958Z,4.50
2019-03-26T01:27:55.076Z,4.67
2019-03-26T01:30:28.034Z,4.69
2019-03-26T01:33:02.621Z,4.76
2019-03-26T01:35:37.078Z,4.81
2019-03-26T01:38:11.063Z,4.71
2019-03-26T01:40:43.630Z,4.65
2019-03-26T01:43:18.093Z,4.60
2019-03-26T01:45:52.077Z,4.55
2019-03-26T01:48:25.215Z,4.50
2019-03-26T01:50:57.126Z,4.50
2019-03-26T01:53:29.077Z,4.50
2019-03-26T01:56:01.250Z,4.57
2019-03-26T01:58:34.207Z,4.52
2019-03-26T02:01:08.080Z,4.50
2019-03-26T02:03:40.211Z,4.50
2019-03-26T02:06:13.312Z,4.58
2019-03-26T02:08:45.196Z,4.57
2019-03-26T02:11:18.693Z,4.64
2019-03-26T02:13:52.312Z,4.62
2019-03-26T02:16:25.367Z,4.59
2019-03-26T02:18:58.945Z,4.66
2019-03-26T02:21:31.309Z,4.60
2019-03-26T02:24:05.035Z,4.65
2019-03-26T02:26:37.453Z,4.66
2019-03-26T02:29:10.394Z,4.64
2019-03-26T02:31:43.488Z,4.66
2019-03-26T02:34:16.433Z,4.69
2019-03-26T02:36:49.448Z,4.73
2019-03-26T02:39:22.892Z,4.69
2019-03-26T02:41:56.805Z,4.69
2019-03-26T02:44:31.416Z,4.66
2019-03-26T02:47:04.506Z,4.62
2019-03-26T02:49:37.755Z,4.64
2019-03-26T02:52:10.456Z,4.69
2019-03-26T02:54:43.986Z,4.69
2019-03-26T02:57:18.450Z,4.68
2019-03-26T02:59:50.679Z,4.70
2019-03-26T03:02:22.810Z,4.66
2019-03-26T03:04:55.632Z,4.60
2019-03-26T03:07:28.589Z,4.58
2019-03-26T03:10:01.810Z,4.54
2019-03-26T03:12:36.193Z,4.60
2019-03-26T03:15:11.216Z,4.63
2019-03-26T03:17:45.560Z,4.60
2019-03-26T03:20:18.776Z,4.57
2019-03-26T03:22:52.655Z,4.58
2019-03-26T03:25:26.697Z,4.54
2019-03-26T03:27:58.629Z,4.50
2019-03-26T03:30:31.755Z,4.53
2019-03-26T03:33:04.703Z,4.45
2019-03-26T03:35:51.248Z,4.43
2019-03-26T03:38:10.569Z,4.45
2019-03-26T03:40:43.793Z,4.41
2019-03-26T03:43:16.024Z,4.38
2019-03-26T03:45:48.914Z,4.26
2019-03-26T03:48:24.058Z,4.19
2019-03-26T03:50:58.840Z,4.11
2019-03-26T03:53:32.805Z,4.08
2019-03-26T03:56:05.515Z,4.08
2019-03-26T03:58:41.010Z,4.07
2019-03-26T04:01:14.904Z,4.03
2019-03-26T04:03:48.421Z,4.01
2019-03-26T04:06:21.968Z,4.02
2019-03-26T04:08:55.977Z,4.01
2019-03-26T04:11:29.994Z,4.02
2019-03-26T04:14:01.877Z,4.00
2019-03-26T04:16:33.947Z,4.00
2019-03-26T04:19:07.053Z,3.99
2019-03-26T04:21:40.905Z,3.97
2019-03-26T04:24:13.994Z,3.97
2019-03-26T04:26:47.977Z,3.97
2019-03-26T04:29:21.894Z,3.98
2019-03-26T04:31:56.129Z,3.98
2019-03-26T04:34:32.509Z,3.97
2019-03-26T04:37:06.040Z,3.96
2019-03-26T04:39:40.030Z,3.97
2019-03-26T04:42:14.235Z,4.02
2019-03-26T04:44:47.083Z,4.00
2019-03-26T04:47:19.096Z,4.09
2019-03-26T04:49:52.038Z,4.19
2019-03-26T04:52:24.990Z,4.09
2019-03-26T04:54:58.949Z,4.08
2019-03-26T04:57:31.135Z,4.06
2019-03-26T05:00:04.636Z,4.09
2019-03-26T05:02:38.155Z,4.17
2019-03-26T05:05:12.382Z,4.10
2019-03-26T05:07:46.107Z,4.12
2019-03-26T05:10:18.203Z,4.08
2019-03-26T05:12:51.177Z,4.07
2019-03-26T05:15:24.301Z,4.03
2019-03-26T05:17:56.848Z,4.09
2019-03-26T05:20:31.179Z,4.12
2019-03-26T05:23:04.082Z,4.13
2019-03-26T05:25:37.971Z,4.22
2019-03-26T05:28:10.237Z,4.15
2019-03-26T05:30:43.170Z,4.16
2019-03-26T05:33:16.236Z,4.09
2019-03-26T05:35:51.486Z,4.06
2019-03-26T05:38:23.273Z,4.11
2019-03-26T05:40:55.506Z,4.14
2019-03-26T05:43:28.265Z,4.10
2019-03-26T05:46:01.426Z,4.13
2019-03-26T05:48:34.391Z,4.11
2019-03-26T05:51:07.468Z,4.21
2019-03-26T05:53:40.431Z,4.23
2019-03-26T05:56:12.307Z,4.27
2019-03-26T05:58:45.530Z,4.24
2019-03-26T06:01:18.481Z,4.31
2019-03-26T06:03:50.686Z,4.33
2019-03-26T06:06:23.345Z,4.41
2019-03-26T06:08:55.776Z,4.39
2019-03-26T06:11:28.583Z,4.41
2019-03-26T06:14:01.436Z,4.42
2019-03-26T06:16:38.575Z,4.42
2019-03-26T06:19:08.656Z,4.47
2019-03-26T06:21:43.445Z,4.52
2019-03-26T06:24:17.437Z,4.46
2019-03-26T06:26:49.991Z,4.51
2019-03-26T06:29:22.619Z,4.51
2019-03-26T06:31:59.057Z,4.58
2019-03-26T06:34:33.119Z,4.53
2019-03-26T06:37:17.450Z,4.54
2019-03-26T06:39:42.707Z,4.53
2019-03-26T06:42:17.517Z,4.51
2019-03-26T06:44:50.520Z,4.53
2019-03-26T06:47:24.113Z,4.53
2019-03-26T06:49:58.553Z,4.60
2019-03-26T06:52:31.374Z,4.60
2019-03-26T06:55:04.176Z,4.63
2019-03-26T06:57:37.170Z,4.75
2019-03-26T07:00:12.514Z,4.77
2019-03-26T07:02:49.930Z,4.80
2019-03-26T07:05:23.094Z,4.99
2019-03-26T07:07:55.765Z,4.96
2019-03-26T07:10:29.522Z,5.05
2019-03-26T07:13:03.602Z,5.12
2019-03-26T07:15:37.772Z,5.22
2019-03-26T07:18:11.892Z,5.28
2019-03-26T07:20:45.695Z,5.29
2019-03-26T07:23:20.380Z,5.36
2019-03-26T07:25:54.423Z,5.41
2019-03-26T07:28:28.647Z,5.46
2019-03-26T07:31:03.303Z,5.45
2019-03-26T07:33:37.634Z,5.47
2019-03-26T07:36:11.666Z,5.60
2019-03-26T07:38:43.613Z,5.55
2019-03-26T07:41:15.911Z,5.71
2019-03-26T07:43:49.797Z,5.88
2019-03-26T07:46:23.836Z,6.06
2019-03-26T07:48:57.643Z,6.20
2019-03-26T07:51:34.697Z,6.33
2019-03-26T07:54:08.312Z,6.37
2019-03-26T07:56:43.381Z,6.42
2019-03-26T07:59:19.898Z,6.69
2019-03-26T08:01:54.512Z,6.73
2019-03-26T08:04:33.645Z,6.80
2019-03-26T08:07:07.807Z,6.73
2019-03-26T08:09:40.261Z,6.76
2019-03-26T08:12:15.063Z,6.76
2019-03-26T08:14:55.719Z,6.70
2019-03-26T08:17:45.269Z,6.75
2019-03-26T08:20:20.374Z,6.71
2019-03-26T08:22:54.023Z,6.76
2019-03-26T08:25:26.081Z,6.76
2019-03-26T08:28:01.027Z,6.81
2019-03-26T08:30:36.163Z,6.86
2019-03-26T08:33:11.218Z,6.89
2019-03-26T08:35:44.196Z,6.95
2019-03-26T08:38:17.130Z,7.09
2019-03-26T08:40:50.571Z,7.18
2019-03-26T08:43:29.829Z,7.16
2019-03-26T08:46:02.197Z,7.22
2019-03-26T08:48:35.136Z,7.24
2019-03-26T08:51:08.593Z,7.24
2019-03-26T08:53:42.570Z,7.28
2019-03-26T08:56:16.788Z,7.40
2019-03-26T08:58:54.915Z,7.38
2019-03-26T09:01:29.213Z,7.52
2019-03-26T09:04:09.246Z,7.59
2019-03-26T09:06:43.473Z,7.74
2019-03-26T09:09:20.608Z,7.80
2019-03-26T09:11:54.258Z,7.93
2019-03-26T09:14:26.760Z,7.85
2019-03-26T09:16:59.818Z,7.91
2019-03-26T09:19:33.853Z,8.01
2019-03-26T09:22:12.268Z,8.11
2019-03-26T09:24:50.949Z,8.14
2019-03-26T09:27:26.050Z,8.23
2019-03-26T09:30:01.980Z,8.30
2019-03-26T09:32:37.932Z,8.27
2019-03-26T09:35:11.628Z,8.24
2019-03-26T09:37:44.317Z,8.24
2019-03-26T09:40:22.356Z,8.25
2019-03-26T09:42:56.254Z,8.43
2019-03-26T09:45:30.933Z,8.50
2019-03-26T09:48:08.909Z,8.71
2019-03-26T09:50:41.952Z,8.89
2019-03-26T09:53:18.768Z,9.10
2019-03-26T09:55:53.522Z,9.05
2019-03-26T09:58:36.805Z,9.06
2019-03-26T10:01:14.196Z,8.99
2019-03-26T10:03:52.936Z,9.04
2019-03-26T10:06:33.725Z,9.08
2019-03-26T10:09:11.748Z,9.09
2019-03-26T10:11:44.845Z,9.02
2019-03-26T10:14:20.670Z,9.02
2019-03-26T10:16:56.484Z,9.11
2019-03-26T10:19:33.134Z,9.12
2019-03-26T10:22:07.776Z,9.07
2019-03-26T10:24:43.194Z,9.12
2019-03-26T10:27:18.379Z,9.19
2019-03-26T10:29:55.601Z,9.33
2019-03-26T10:32:30.554Z,9.16
2019-03-26T10:35:07.625Z,9.03
2019-03-26T10:37:41.263Z,9.00
2019-03-26T10:40:30.425Z,8.95
2019-03-26T10:43:04.557Z,8.95
2019-03-26T10:45:37.944Z,9.19
2019-03-26T10:48:21.677Z,9.53
2019-03-26T10:50:55.205Z,9.72
2019-03-26T10:53:35.426Z,9.91
2019-03-26T10:56:14.941Z,10.38
2019-03-26T10:58:50.136Z,10.40
2019-03-26T11:01:23.566Z,10.07
2019-03-26T11:04:01.972Z,9.77
2019-03-26T11:06:38.856Z,9.87
2019-03-26T11:09:21.366Z,10.11
2019-03-26T11:11:51.234Z,9.56
2019-03-26T11:14:43.053Z,9.89
2019-03-26T11:17:19.228Z,9.79
2019-03-26T11:19:53.433Z,9.65
2019-03-26T11:22:28.308Z,9.73
2019-03-26T11:25:02.366Z,9.79
2019-03-26T11:27:34.920Z,9.83
2019-03-26T11:30:08.655Z,9.98
2019-03-26T11:32:44.383Z,10.31
2019-03-26T11:35:16.939Z,10.49
2019-03-26T11:37:51.537Z,10.20
2019-03-26T11:40:32.905Z,10.06
2019-03-26T11:43:05.882Z,9.86
2019-03-26T11:45:37.775Z,9.91
2019-03-26T11:48:11.858Z,10.03
2019-03-26T11:50:45.971Z,10.52
2019-03-26T11:53:21.138Z,10.58
2019-03-26T11:55:56.141Z,10.68
2019-03-26T11:58:30.783Z,10.49
2019-03-26T12:01:08.135Z,10.37
2019-03-26T12:03:46.332Z,10.37
2019-03-26T12:06:19.817Z,10.52
2019-03-26T12:08:52.124Z,10.49
2019-03-26T12:11:27.184Z,10.48
2019-03-26T12:14:03.527Z,10.36
2019-03-26T12:16:40.852Z,10.15
2019-03-26T12:19:13.010Z,10.03
2019-03-26T12:21:47.028Z,9.83
2019-03-26T12:24:19.519Z,9.95
2019-03-26T12:26:53.128Z,9.95
2019-03-26T12:29:27.512Z,9.88
2019-03-26T12:31:59.845Z,9.94
2019-03-26T12:34:32.174Z,10.05
2019-03-26T12:37:06.363Z,10.05
2019-03-26T12:39:40.425Z,10.02
2019-03-26T12:42:15.096Z,10.14
2019-03-26T12:44:49.057Z,10.32
2019-03-26T12:47:23.017Z,10.37
2019-03-26T12:49:56.684Z,10.33
2019-03-26T12:52:29.250Z,10.33
2019-03-26T12:55:02.997Z,10.11
2019-03-26T12:57:35.300Z,9.92
2019-03-26T13:00:11.472Z,9.97
2019-03-26T13:02:45.295Z,10.04
2019-03-26T13:05:23.209Z,10.14
2019-03-26T13:07:58.057Z,10.20
2019-03-26T13:10:29.974Z,10.41
2019-03-26T13:13:02.213Z,10.52
2019-03-26T13:15:34.361Z,10.28
2019-03-26T13:18:06.403Z,10.14
2019-03-26T13:20:41.318Z,10.21
2019-03-26T13:23:14.097Z,10.26
2019-03-26T13:25:47.340Z,10.44
2019-03-26T13:28:19.790Z,10.70
2019-03-26T13:30:57.800Z,10.78
2019-03-26T13:33:30.317Z,10.68
2019-03-26T13:36:04.367Z,10.63
2019-03-26T13:38:37.557Z,10.63
2019-03-26T13:41:11.357Z,10.68
2019-03-26T13:43:45.479Z,10.75
2019-03-26T13:46:19.768Z,10.50
2019-03-26T13:48:55.860Z,10.24
2019-03-26T13:51:30.429Z,10.24
2019-03-26T13:54:04.015Z,10.30
2019-03-26T13:56:40.138Z,10.48
2019-03-26T13:59:12.963Z,10.30
2019-03-26T14:01:44.806Z,10.30
2019-03-26T14:04:17.620Z,10.16
2019-03-26T14:06:54.073Z,10.07
2019-03-26T14:09:28.200Z,9.80
2019-03-26T14:12:01.481Z,9.61
2019-03-26T14:14:33.330Z,9.72
2019-03-26T14:17:06.720Z,10.03
2019-03-26T14:19:44.000Z,10.03
2019-03-26T14:22:17.800Z,10.21
2019-03-26T14:24:50.634Z,10.19
2019-03-26T14:27:23.145Z,10.30
2019-03-26T14:29:56.842Z,10.30
2019-03-26T14:32:29.636Z,10.14
2019-03-26T14:35:02.184Z,9.82
2019-03-26T14:37:34.084Z,9.61
2019-03-26T14:40:09.277Z,9.41
2019-03-26T14:42:43.524Z,9.35
2019-03-26T14:45:16.747Z,9.31
2019-03-26T14:47:49.690Z,9.10
2019-03-26T14:50:23.639Z,9.02
2019-03-26T14:52:55.524Z,8.99
2019-03-26T14:55:29.778Z,9.16
2019-03-26T14:58:01.769Z,9.31
2019-03-26T15:00:37.329Z,9.58
2019-03-26T15:03:11.780Z,9.68
2019-03-26T15:05:44.790Z,9.70
2019-03-26T15:08:18.121Z,9.84
2019-03-26T15:10:50.946Z,9.81
2019-03-26T15:13:23.957Z,9.90
2019-03-26T15:15:58.924Z,9.60
2019-03-26T15:18:32.717Z,9.66
2019-03-26T15:21:05.953Z,9.71
2019-03-26T15:23:38.773Z,9.64
2019-03-26T15:26:11.746Z,9.60
2019-03-26T15:28:45.821Z,9.68
2019-03-26T15:31:19.785Z,9.64
2019-03-26T15:33:51.615Z,9.55
2019-03-26T15:36:24.199Z,9.56
2019-03-26T15:38:57.016Z,9.45
2019-03-26T15:41:30.558Z,9.42
2019-03-26T15:44:03.849Z,9.36
2019-03-26T15:46:36.499Z,9.44
2019-03-26T15:49:09.097Z,9.47
2019-03-26T15:51:41.906Z,9.34
2019-03-26T15:54:14.858Z,9.34
2019-03-26T15:56:47.833Z,9.23
2019-03-26T15:59:20.901Z,9.04
2019-03-26T16:01:54.664Z,9.04
2019-03-26T16:04:29.288Z,8.95
2019-03-26T16:07:02.982Z,8.81
2019-03-26T16:09:36.891Z,8.76
2019-03-26T16:12:10.113Z,8.74
2019-03-26T16:14:43.950Z,8.75
2019-03-26T16:17:15.854Z,8.66
2019-03-26T16:19:49.983Z,8.62
2019-03-26T16:22:22.927Z,8.64
2019-03-26T16:24:56.442Z,8.60
2019-03-26T16:27:29.065Z,8.64
2019-03-26T16:30:02.550Z,8.49
2019-03-26T16:32:36.842Z,8.32
2019-03-26T16:35:10.237Z,8.34
2019-03-26T16:37:44.020Z,8.33
2019-03-26T16:40:17.123Z,8.37
2019-03-26T16:42:49.268Z,8.42
2019-03-26T16:45:23.405Z,8.35
2019-03-26T16:47:56.097Z,8.27
2019-03-26T16:50:29.179Z,8.32
2019-03-26T16:53:04.941Z,8.24
2019-03-26T16:55:39.431Z,8.13
2019-03-26T16:58:14.123Z,8.13
2019-03-26T17:00:49.312Z,8.19
2019-03-26T17:03:31.268Z,7.92
2019-03-26T17:05:58.430Z,7.87
2019-03-26T17:08:32.137Z,7.77
2019-03-26T17:11:05.915Z,7.69
2019-03-26T17:13:39.329Z,7.73
2019-03-26T17:16:15.786Z,7.74
2019-03-26T17:18:48.288Z,7.69
2019-03-26T17:21:20.297Z,7.61
2019-03-26T17:23:54.261Z,7.64
2019-03-26T17:26:26.304Z,7.53
2019-03-26T17:28:59.286Z,7.51
2019-03-26T17:31:32.970Z,7.52
2019-03-26T17:34:05.343Z,7.54
2019-03-26T17:36:38.728Z,7.46
2019-03-26T17:39:13.359Z,7.38
2019-03-26T17:41:47.298Z,7.23
2019-03-26T17:44:20.659Z,7.25
2019-03-26T17:46:54.666Z,7.26
2019-03-26T17:49:28.435Z,7.19
2019-03-26T17:52:02.640Z,7.12
2019-03-26T17:54:36.534Z,6.97
2019-03-26T17:57:11.275Z,6.90
2019-03-26T17:59:45.558Z,6.93
2019-03-26T18:02:18.607Z,6.86
2019-03-26T18:04:53.514Z,6.91
2019-03-26T18:07:26.440Z,6.81
2019-03-26T18:09:58.410Z,6.86
2019-03-26T18:12:31.360Z,6.86
2019-03-26T18:15:07.516Z,6.80
2019-03-26T18:17:39.407Z,6.68
2019-03-26T18:20:13.410Z,6.68
2019-03-26T18:22:49.357Z,6.61
2019-03-26T18:25:24.891Z,6.64
2019-03-26T18:28:02.569Z,6.61
2019-03-26T18:30:36.552Z,6.62
2019-03-26T18:33:10.505Z,6.64
2019-03-26T18:35:44.643Z,6.70
2019-03-26T18:38:16.913Z,6.77
2019-03-26T18:40:50.610Z,6.83
2019-03-26T18:43:23.677Z,6.77
2019-03-26T18:45:56.694Z,6.88
2019-03-26T18:48:30.618Z,6.88
2019-03-26T18:51:02.794Z,6.90
2019-03-26T18:53:35.800Z,6.79
2019-03-26T18:56:08.722Z,6.82
2019-03-26T18:58:41.677Z,6.75
2019-03-26T19:01:15.611Z,6.87
2019-03-26T19:03:49.307Z,6.75
2019-03-26T19:06:23.742Z,6.95
2019-03-26T19:08:56.985Z,6.89
2019-03-26T19:11:29.912Z,6.78
2019-03-26T19:14:03.100Z,6.82
2019-03-26T19:16:36.031Z,6.77
2019-03-26T19:19:10.689Z,6.35
2019-03-26T19:21:44.430Z,6.74
2019-03-26T19:24:21.278Z,6.77
2019-03-26T19:26:54.962Z,6.68
2019-03-26T19:29:30.725Z,6.73
2019-03-26T19:32:03.827Z,6.78
2019-03-26T19:34:37.140Z,6.79
2019-03-26T19:37:12.010Z,6.72
2019-03-26T19:39:45.782Z,6.65
2019-03-26T19:42:17.954Z,6.60
2019-03-26T19:44:52.946Z,6.67
2019-03-26T19:47:27.482Z,6.74
2019-03-26T19:50:00.331Z,6.82
2019-03-26T19:52:35.170Z,6.68
2019-03-26T19:55:10.533Z,6.64
2019-03-26T19:57:43.002Z,6.64
2019-03-26T20:00:15.872Z,6.60
2019-03-26T20:02:49.611Z,6.69
2019-03-26T20:05:21.889Z,6.71
2019-03-26T20:07:56.122Z,6.71
2019-03-26T20:10:28.179Z,6.73
2019-03-26T20:13:03.333Z,6.70
2019-03-26T20:15:36.247Z,6.72
2019-03-26T20:18:09.152Z,6.74
2019-03-26T20:20:43.001Z,6.68
2019-03-26T20:23:16.207Z,6.69
2019-03-26T20:25:50.707Z,6.75
2019-03-26T20:28:27.261Z,6.71
2019-03-26T20:31:00.164Z,6.68
2019-03-26T20:33:32.526Z,6.71
2019-03-26T20:36:06.634Z,6.68
2019-03-26T20:38:39.220Z,6.66
2019-03-26T20:41:13.257Z,6.65
2019-03-26T20:43:45.344Z,5.64
2019-03-26T20:46:19.200Z,6.63
2019-03-26T20:48:54.186Z,6.65
2019-03-26T20:51:26.033Z,6.66
2019-03-26T20:53:58.271Z,6.70
2019-03-26T20:56:30.276Z,6.72
2019-03-26T20:59:04.372Z,6.69
2019-03-26T21:01:39.162Z,6.66
2019-03-26T21:04:11.332Z,6.64
2019-03-26T21:06:44.603Z,6.63
2019-03-26T21:09:18.408Z,6.63
2019-03-26T21:11:50.395Z,6.65
2019-03-26T21:14:24.214Z,6.76
2019-03-26T21:16:56.309Z,6.71
2019-03-26T21:19:30.162Z,6.65
2019-03-26T21:22:04.285Z,6.62
2019-03-26T21:24:38.876Z,6.71
2019-03-26T21:27:14.371Z,6.67
2019-03-26T21:29:48.881Z,5.23
2019-03-26T21:32:22.129Z,6.65
2019-03-26T21:34:55.036Z,6.63
2019-03-26T21:37:30.574Z,6.61
2019-03-26T21:40:03.995Z,6.65
2019-03-26T21:42:36.931Z,6.72
2019-03-26T21:45:14.098Z,6.76
2019-03-26T21:47:49.359Z,6.71
2019-03-26T21:50:21.749Z,6.64
2019-03-26T21:52:56.861Z,6.76
2019-03-26T21:55:29.976Z,6.68
2019-03-26T21:58:03.945Z,6.74
2019-03-26T22:00:38.020Z,6.71
2019-03-26T22:03:11.889Z,6.68
2019-03-26T22:05:47.987Z,6.72
2019-03-26T22:08:20.990Z,6.70
2019-03-26T22:10:57.565Z,6.72
2019-03-26T22:13:29.979Z,6.86
2019-03-26T22:16:05.181Z,6.85
2019-03-26T22:18:38.878Z,6.81
2019-03-26T22:21:15.611Z,6.78
2019-03-26T22:23:49.132Z,6.76
2019-03-26T22:26:21.582Z,6.86
2019-03-26T22:28:56.029Z,6.84
2019-03-26T22:31:30.146Z,6.75
2019-03-26T22:34:04.250Z,6.79
2019-03-26T22:36:37.680Z,6.76
2019-03-26T22:39:12.328Z,6.72
2019-03-26T22:41:45.244Z,6.71
2019-03-26T22:44:30.753Z,6.68
2019-03-26T22:46:54.264Z,6.61
2019-03-26T22:49:27.833Z,6.58
2019-03-26T22:52:01.457Z,6.53
2019-03-26T22:54:36.296Z,6.70
2019-03-26T22:57:09.515Z,6.60
2019-03-26T22:59:42.510Z,6.57
2019-03-26T23:02:15.335Z,6.52
2019-03-26T23:04:49.462Z,6.48
2019-03-26T23:07:21.937Z,6.45
2019-03-26T23:09:57.380Z,6.43
2019-03-26T23:12:30.349Z,6.41
2019-03-26T23:15:06.331Z,6.45
2019-03-26T23:17:41.914Z,6.39
2019-03-26T23:20:14.531Z,6.38
2019-03-26T23:22:48.550Z,6.38
2019-03-26T23:25:21.240Z,6.38
2019-03-26T23:27:55.378Z,6.39
2019-03-26T23:30:30.406Z,6.40
2019-03-26T23:33:06.813Z,6.36
2019-03-26T23:35:40.442Z,6.47
2019-03-26T23:38:17.285Z,6.48
2019-03-26T23:40:51.448Z,6.43
2019-03-26T23:43:24.342Z,6.37
2019-03-26T23:45:57.510Z,6.40
2019-03-26T23:48:31.688Z,6.39
2019-03-26T23:51:04.004Z,6.46
2019-03-26T23:53:36.604Z,6.38
2019-03-26T23:56:10.417Z,6.36
2019-03-26T23:58:44.976Z,6.36
